Terminal Aerodrome Forecast
Issued by NWS Jackson, KY

Home | Current Version | Previous Version | Text Only | Print | Product List | Glossary On
Versions: 1 2 3 4 5 6 7 8 9 10 11 12 13 14 15 16 17 18 19
109
FTUS43 KJKL 180533
TAFLOZ
TAF
KLOZ 180533Z 1806/1906 19008KT P6SM BKN120 WS020/21040KT
     FM180900 19010G22KT P6SM OVC080
     FM181400 20016G31KT P6SM VCSH BKN045
     FM182100 20017G31KT 3SM SHRA VCTS OVC025CB
     FM190300 28012G25KT 4SM -RA BR BKN020=

USA.gov is the U.S. government's official web portal to all federal, state and local government web resources and services.